createdAt,value
2018-07-17T00:00:40.507Z,21.98
2018-07-17T00:01:50.349Z,21.98
2018-07-17T00:02:40.510Z,21.98
2018-07-17T00:03:40.406Z,21.98
2018-07-17T00:04:40.580Z,21.98
2018-07-17T00:05:40.464Z,21.98
2018-07-17T00:06:40.259Z,21.98
2018-07-17T00:07:40.563Z,21.98
2018-07-17T00:08:40.424Z,21.98
2018-07-17T00:09:40.919Z,21.97
2018-07-17T00:10:40.602Z,21.98
2018-07-17T00:11:40.715Z,21.98
2018-07-17T00:12:41.024Z,21.97
2018-07-17T00:13:40.268Z,21.97
2018-07-17T00:14:40.581Z,21.98
2018-07-17T00:15:40.551Z,21.97
2018-07-17T00:16:40.409Z,21.97
2018-07-17T00:17:40.495Z,21.97
2018-07-17T00:18:40.444Z,21.97
2018-07-17T00:19:40.431Z,21.97
2018-07-17T00:20:40.309Z,21.97
2018-07-17T00:21:40.657Z,21.97
2018-07-17T00:22:40.549Z,21.97
2018-07-17T00:23:40.611Z,21.96
2018-07-17T00:24:40.410Z,21.97
2018-07-17T00:25:40.541Z,21.96
2018-07-17T00:26:40.633Z,21.96
2018-07-17T00:27:40.379Z,21.96
2018-07-17T00:28:40.516Z,21.97
2018-07-17T00:29:40.521Z,21.96
2018-07-17T00:30:40.530Z,21.96
2018-07-17T00:31:40.531Z,21.96
2018-07-17T00:32:40.617Z,21.96
2018-07-17T00:33:40.450Z,21.96
2018-07-17T00:34:40.288Z,21.96
2018-07-17T00:35:40.515Z,21.96
2018-07-17T00:36:40.278Z,21.96
2018-07-17T00:37:40.499Z,21.95
2018-07-17T00:38:40.535Z,21.96
2018-07-17T00:39:40.581Z,21.96
2018-07-17T00:40:40.538Z,21.95
2018-07-17T00:41:40.658Z,21.95
2018-07-17T00:42:40.481Z,21.95
2018-07-17T00:43:40.287Z,21.95
2018-07-17T00:44:40.427Z,21.96
2018-07-17T00:45:40.476Z,21.95
2018-07-17T00:46:40.479Z,21.95
2018-07-17T00:47:40.572Z,21.96
2018-07-17T00:48:40.463Z,21.95
2018-07-17T00:49:40.454Z,21.95
2018-07-17T00:50:40.251Z,21.95
2018-07-17T00:51:40.435Z,21.95
2018-07-17T00:52:40.404Z,21.95
2018-07-17T00:53:40.466Z,21.95
2018-07-17T00:54:40.500Z,21.95
2018-07-17T00:55:40.926Z,21.95
2018-07-17T00:56:40.685Z,21.95
2018-07-17T00:57:40.306Z,21.95
2018-07-17T00:58:40.829Z,21.95
2018-07-17T00:59:40.451Z,21.95
2018-07-17T01:00:40.426Z,21.95
2018-07-17T01:01:40.430Z,21.95
2018-07-17T01:02:40.631Z,21.95
2018-07-17T01:03:40.424Z,21.95
2018-07-17T01:04:40.621Z,21.95
2018-07-17T01:05:40.335Z,21.95
2018-07-17T01:06:50.512Z,21.95
2018-07-17T01:07:40.332Z,21.95
2018-07-17T01:08:40.702Z,21.95
2018-07-17T01:09:40.647Z,21.95
2018-07-17T01:10:40.390Z,21.95
2018-07-17T01:11:40.285Z,21.95
2018-07-17T01:12:40.506Z,21.94
2018-07-17T01:13:40.547Z,21.95
2018-07-17T01:14:40.481Z,21.94
2018-07-17T01:15:40.329Z,21.94
2018-07-17T01:16:40.419Z,21.94
2018-07-17T01:17:40.440Z,21.94
2018-07-17T01:18:40.367Z,21.94
2018-07-17T01:19:40.458Z,21.94
2018-07-17T01:20:40.425Z,21.94
2018-07-17T01:21:40.604Z,21.94
2018-07-17T01:22:40.462Z,21.94
2018-07-17T01:23:40.359Z,21.94
2018-07-17T01:24:40.395Z,21.94
2018-07-17T01:25:40.496Z,21.93
2018-07-17T01:26:40.401Z,21.94
2018-07-17T01:27:40.301Z,21.93
2018-07-17T01:28:40.491Z,21.93
2018-07-17T01:29:40.621Z,21.93
2018-07-17T01:30:40.553Z,21.93
2018-07-17T01:31:40.472Z,21.93
2018-07-17T01:32:51.343Z,21.93
2018-07-17T01:33:40.560Z,21.93
2018-07-17T01:34:40.284Z,21.93
2018-07-17T01:35:40.452Z,21.93
2018-07-17T01:36:40.556Z,21.93
2018-07-17T01:37:40.423Z,21.92
2018-07-17T01:38:40.460Z,21.93
2018-07-17T01:39:40.449Z,21.93
2018-07-17T01:40:40.775Z,21.93
2018-07-17T01:41:40.949Z,21.93
2018-07-17T01:42:40.580Z,21.93
2018-07-17T01:43:40.555Z,21.92
2018-07-17T01:44:40.344Z,21.92
2018-07-17T01:45:40.603Z,21.92
2018-07-17T01:46:40.511Z,21.92
2018-07-17T01:47:40.401Z,21.92
2018-07-17T01:48:40.561Z,21.92
2018-07-17T01:49:40.774Z,21.92
2018-07-17T01:50:40.723Z,21.92
2018-07-17T01:51:40.315Z,21.92
2018-07-17T01:52:40.523Z,21.92
2018-07-17T01:53:40.741Z,21.92
2018-07-17T01:54:40.452Z,21.91
2018-07-17T01:55:40.330Z,21.92
2018-07-17T01:56:40.604Z,21.92
2018-07-17T01:57:40.480Z,21.91
2018-07-17T01:58:40.427Z,21.92
2018-07-17T01:59:40.645Z,21.92
2018-07-17T02:00:40.295Z,21.92
2018-07-17T02:01:40.552Z,21.92
2018-07-17T02:02:40.442Z,21.91
2018-07-17T02:03:40.647Z,21.91
2018-07-17T02:04:40.869Z,21.91
2018-07-17T02:05:40.730Z,21.91
2018-07-17T02:06:40.479Z,21.91
2018-07-17T02:07:40.309Z,21.91
2018-07-17T02:08:40.538Z,21.91
2018-07-17T02:09:40.366Z,21.91
2018-07-17T02:10:40.361Z,21.91
2018-07-17T02:11:40.323Z,21.91
2018-07-17T02:12:40.309Z,21.91
2018-07-17T02:13:40.675Z,21.91
2018-07-17T02:14:40.270Z,21.91
2018-07-17T02:15:40.595Z,21.9
2018-07-17T02:16:40.473Z,21.9
2018-07-17T02:17:40.524Z,21.9
2018-07-17T02:18:40.855Z,21.91
2018-07-17T02:19:40.329Z,21.91
2018-07-17T02:20:40.845Z,21.9
2018-07-17T02:21:40.304Z,21.9
2018-07-17T02:22:40.540Z,21.9
2018-07-17T02:23:40.311Z,21.9
2018-07-17T02:24:40.517Z,21.9
2018-07-17T02:25:40.407Z,21.9
2018-07-17T02:26:40.689Z,21.9
2018-07-17T02:27:40.743Z,21.9
2018-07-17T02:28:40.628Z,21.89
2018-07-17T02:29:40.228Z,21.9
2018-07-17T02:30:40.263Z,21.9
2018-07-17T02:31:40.798Z,21.9
2018-07-17T02:32:40.448Z,21.9
2018-07-17T02:33:40.686Z,21.89
2018-07-17T02:34:40.369Z,21.89
2018-07-17T02:35:40.571Z,21.9
2018-07-17T02:36:40.839Z,21.89
2018-07-17T02:37:40.271Z,21.89
2018-07-17T02:38:40.427Z,21.89
2018-07-17T02:39:40.878Z,21.89
2018-07-17T02:40:40.730Z,21.89
2018-07-17T02:41:41.191Z,21.89
2018-07-17T02:42:40.373Z,21.89
2018-07-17T02:43:40.737Z,21.89
2018-07-17T02:44:40.718Z,21.89
2018-07-17T02:45:40.358Z,21.89
2018-07-17T02:46:40.235Z,21.89
2018-07-17T02:47:40.567Z,21.89
2018-07-17T02:48:40.535Z,21.89
2018-07-17T02:49:40.300Z,21.89
2018-07-17T02:50:40.599Z,21.89
2018-07-17T02:51:40.690Z,21.89
2018-07-17T02:52:40.321Z,21.89
2018-07-17T02:53:40.341Z,21.89
2018-07-17T02:54:40.407Z,21.89
2018-07-17T02:55:40.479Z,21.89
2018-07-17T02:56:40.626Z,21.89
2018-07-17T02:57:40.571Z,21.89
2018-07-17T02:58:40.322Z,21.89
2018-07-17T02:59:41.970Z,21.89
2018-07-17T03:00:40.274Z,21.89
2018-07-17T03:01:40.584Z,21.89
2018-07-17T03:02:40.564Z,21.89
2018-07-17T03:03:40.492Z,21.89
2018-07-17T03:04:40.446Z,21.89
2018-07-17T03:05:40.418Z,21.89
2018-07-17T03:06:40.545Z,21.88
2018-07-17T03:07:40.373Z,21.89
2018-07-17T03:08:40.350Z,21.89
2018-07-17T03:09:40.493Z,21.89
2018-07-17T03:10:40.349Z,21.88
2018-07-17T03:11:40.692Z,21.88
2018-07-17T03:12:40.442Z,21.89
2018-07-17T03:13:40.702Z,21.88
2018-07-17T03:15:11.903Z,21.89
2018-07-17T03:15:40.259Z,21.88
2018-07-17T03:16:40.744Z,21.88
2018-07-17T03:17:40.249Z,21.88
2018-07-17T03:18:40.273Z,21.88
2018-07-17T03:19:40.396Z,21.88
2018-07-17T03:20:40.782Z,21.88
2018-07-17T03:21:40.438Z,21.88
2018-07-17T03:22:40.277Z,21.87
2018-07-17T03:23:40.392Z,21.88
2018-07-17T03:24:50.280Z,21.88
2018-07-17T03:25:40.337Z,21.88
2018-07-17T03:26:40.353Z,21.88
2018-07-17T03:27:40.333Z,21.87
2018-07-17T03:28:40.313Z,21.87
2018-07-17T03:29:40.247Z,21.87
2018-07-17T03:30:40.390Z,21.86
2018-07-17T03:31:40.547Z,21.87
2018-07-17T03:32:40.423Z,21.87
2018-07-17T03:33:40.744Z,21.87
2018-07-17T03:34:40.434Z,21.87
2018-07-17T03:35:40.596Z,21.87
2018-07-17T03:36:40.214Z,21.87
2018-07-17T03:37:40.511Z,21.87
2018-07-17T03:38:40.561Z,21.86
2018-07-17T03:39:40.416Z,21.87
2018-07-17T03:40:40.550Z,21.87
2018-07-17T03:41:40.199Z,21.87
2018-07-17T03:42:40.411Z,21.86
2018-07-17T03:43:40.254Z,21.87
2018-07-17T03:44:40.625Z,21.87
2018-07-17T03:45:40.277Z,21.86
2018-07-17T03:46:40.782Z,21.86
2018-07-17T03:47:40.357Z,21.86
2018-07-17T03:48:40.423Z,21.86
2018-07-17T03:49:40.251Z,21.86
2018-07-17T03:50:40.768Z,21.86
2018-07-17T03:51:40.420Z,21.86
2018-07-17T03:52:40.335Z,21.86
2018-07-17T03:53:40.422Z,21.86
2018-07-17T03:54:40.658Z,21.86
2018-07-17T03:55:40.807Z,21.86
2018-07-17T03:56:40.462Z,21.86
2018-07-17T03:57:40.384Z,21.85
2018-07-17T03:58:40.399Z,21.86
2018-07-17T03:59:40.726Z,21.86
2018-07-17T04:00:40.414Z,21.85
2018-07-17T04:01:40.245Z,21.85
2018-07-17T04:02:40.597Z,21.86
2018-07-17T04:03:40.483Z,21.85
2018-07-17T04:04:40.328Z,21.85
2018-07-17T04:05:40.294Z,21.85
2018-07-17T04:06:40.402Z,21.85
2018-07-17T04:07:40.436Z,21.85
2018-07-17T04:08:41.141Z,21.85
2018-07-17T04:09:40.369Z,21.85
2018-07-17T04:10:40.230Z,21.85
2018-07-17T04:11:40.430Z,21.85
2018-07-17T04:12:40.422Z,21.84
2018-07-17T04:13:40.749Z,21.85
2018-07-17T04:14:40.740Z,21.84
2018-07-17T04:15:40.309Z,21.85
2018-07-17T04:16:40.420Z,21.84
2018-07-17T04:17:40.829Z,21.84
2018-07-17T04:18:40.742Z,21.84
2018-07-17T04:19:40.188Z,21.84
2018-07-17T04:20:40.491Z,21.84
2018-07-17T04:21:40.331Z,21.84
2018-07-17T04:22:40.297Z,21.84
2018-07-17T04:23:40.277Z,21.84
2018-07-17T04:24:40.443Z,21.84
2018-07-17T04:25:40.406Z,21.84
2018-07-17T04:26:40.218Z,21.84
2018-07-17T04:27:40.719Z,21.84
2018-07-17T04:28:40.204Z,21.84
2018-07-17T04:29:40.972Z,21.84
2018-07-17T04:30:40.220Z,21.83
2018-07-17T04:31:41.238Z,21.71
2018-07-17T04:32:40.373Z,21.7
2018-07-17T04:33:40.233Z,21.65
2018-07-17T04:34:40.452Z,21.61
2018-07-17T04:35:40.373Z,21.54
2018-07-17T04:36:40.322Z,21.48
2018-07-17T04:37:40.250Z,21.36
2018-07-17T04:38:40.297Z,21.32
2018-07-17T04:39:40.730Z,21.24
2018-07-17T04:40:40.356Z,21.24
2018-07-17T04:41:40.267Z,21.24
2018-07-17T04:42:40.424Z,21.21
2018-07-17T04:43:40.681Z,21.18
2018-07-17T04:44:40.335Z,21.1
2018-07-17T04:45:40.629Z,21.12
2018-07-17T04:46:40.200Z,21.15
2018-07-17T04:47:40.214Z,21.07
2018-07-17T04:48:40.336Z,20.98
2018-07-17T04:49:40.250Z,21.03
2018-07-17T04:50:40.446Z,21.07
2018-07-17T04:51:40.397Z,21.09
2018-07-17T04:52:40.282Z,21.14
2018-07-17T04:53:40.286Z,21.16
2018-07-17T04:54:40.403Z,21.2
2018-07-17T04:55:40.692Z,21.22
2018-07-17T04:56:40.451Z,21.24
2018-07-17T04:57:40.339Z,21.28
2018-07-17T04:58:40.516Z,21.3
2018-07-17T04:59:40.249Z,21.32
2018-07-17T05:00:40.291Z,21.34
2018-07-17T05:01:41.360Z,21.36
2018-07-17T05:02:40.200Z,21.37
2018-07-17T05:03:40.585Z,21.39
2018-07-17T05:04:40.379Z,21.41
2018-07-17T05:05:40.473Z,21.42
2018-07-17T05:06:40.367Z,21.43
2018-07-17T05:07:40.668Z,21.45
2018-07-17T05:08:40.433Z,21.46
2018-07-17T05:09:40.203Z,21.47
2018-07-17T05:10:40.470Z,21.48
2018-07-17T05:11:40.301Z,21.48
2018-07-17T05:12:40.451Z,21.49
2018-07-17T05:13:40.395Z,21.5
2018-07-17T05:14:40.337Z,21.51
2018-07-17T05:15:40.628Z,21.52
2018-07-17T05:16:40.481Z,21.52
2018-07-17T05:17:40.486Z,21.53
2018-07-17T05:18:50.341Z,21.54
2018-07-17T05:19:40.395Z,21.54
2018-07-17T05:20:40.397Z,21.54
2018-07-17T05:21:40.376Z,21.54
2018-07-17T05:22:40.360Z,21.55
2018-07-17T05:23:40.282Z,21.56
2018-07-17T05:24:40.813Z,21.56
2018-07-17T05:25:40.474Z,21.56
2018-07-17T05:26:40.464Z,21.57
2018-07-17T05:27:40.417Z,21.57
2018-07-17T05:28:40.374Z,21.57
2018-07-17T05:29:40.591Z,21.58
2018-07-17T05:30:40.128Z,21.59
2018-07-17T05:31:40.251Z,21.59
2018-07-17T05:32:40.338Z,21.59
2018-07-17T05:33:40.430Z,21.59
2018-07-17T05:34:40.449Z,21.59
2018-07-17T05:35:40.454Z,21.6
2018-07-17T05:36:40.285Z,21.6
2018-07-17T05:37:40.282Z,21.6
2018-07-17T05:38:40.739Z,21.6
2018-07-17T05:39:40.277Z,21.6
2018-07-17T05:40:40.389Z,21.6
2018-07-17T05:41:40.681Z,21.6
2018-07-17T05:42:40.363Z,21.61
2018-07-17T05:43:40.443Z,21.6
2018-07-17T05:44:40.280Z,21.61
2018-07-17T05:45:40.313Z,21.61
2018-07-17T05:46:40.290Z,21.61
2018-07-17T05:47:40.468Z,21.61
2018-07-17T05:48:40.419Z,21.61
2018-07-17T05:49:40.293Z,21.61
2018-07-17T05:50:40.373Z,21.61
2018-07-17T05:51:40.442Z,21.62
2018-07-17T05:52:40.211Z,21.62
2018-07-17T05:53:40.181Z,21.62
2018-07-17T05:54:40.308Z,21.62
2018-07-17T05:55:40.396Z,21.62
2018-07-17T05:56:40.321Z,21.62
2018-07-17T05:57:40.488Z,21.62
2018-07-17T05:58:40.376Z,21.63
2018-07-17T05:59:40.342Z,21.63
2018-07-17T06:00:40.222Z,21.63
2018-07-17T06:01:40.479Z,21.63
2018-07-17T06:02:40.475Z,21.63
2018-07-17T06:03:40.237Z,21.63
2018-07-17T06:04:40.418Z,21.63
2018-07-17T06:05:40.507Z,21.64
2018-07-17T06:06:40.440Z,21.64
2018-07-17T06:07:50.240Z,21.64
2018-07-17T06:08:40.319Z,21.64
2018-07-17T06:09:40.451Z,21.64
2018-07-17T06:10:40.405Z,21.64
2018-07-17T06:11:40.406Z,21.64
2018-07-17T06:13:03.796Z,21.65
2018-07-17T06:14:04.031Z,21.65
2018-07-17T06:15:03.608Z,21.65
2018-07-17T06:16:03.972Z,21.65
2018-07-17T06:17:03.746Z,21.65
2018-07-17T06:18:04.529Z,21.65
2018-07-17T06:19:04.519Z,21.65
2018-07-17T06:20:03.875Z,21.65
2018-07-17T06:21:03.874Z,21.65
2018-07-17T06:22:04.133Z,21.65
2018-07-17T06:23:03.875Z,21.65
2018-07-17T06:24:03.776Z,21.65
2018-07-17T06:25:04.100Z,21.65
2018-07-17T06:26:03.811Z,21.65
2018-07-17T06:27:03.868Z,21.65
2018-07-17T06:28:03.589Z,21.65
2018-07-17T06:29:03.784Z,21.65
2018-07-17T06:30:03.847Z,21.65
2018-07-17T06:31:03.956Z,21.65
2018-07-17T06:32:03.722Z,21.65
2018-07-17T06:33:04.447Z,21.65
2018-07-17T06:34:03.946Z,21.65
2018-07-17T06:35:03.911Z,21.65
2018-07-17T06:36:03.668Z,21.66
2018-07-17T06:37:03.838Z,21.65
2018-07-17T06:38:03.740Z,21.66
2018-07-17T06:39:03.732Z,21.65
2018-07-17T06:40:03.714Z,21.66
2018-07-17T06:41:03.689Z,21.66
2018-07-17T06:42:03.767Z,21.66
2018-07-17T06:43:03.795Z,21.66
2018-07-17T06:44:03.731Z,21.66
2018-07-17T06:45:03.729Z,21.66
2018-07-17T06:46:03.791Z,21.66
2018-07-17T06:47:03.665Z,21.66
2018-07-17T06:48:03.799Z,21.66
2018-07-17T06:49:03.736Z,21.66
2018-07-17T06:50:03.712Z,21.66
2018-07-17T06:51:03.843Z,21.67
2018-07-17T06:52:03.840Z,21.67
2018-07-17T06:53:03.658Z,21.66
2018-07-17T06:54:03.761Z,21.67
2018-07-17T06:55:03.851Z,21.66
2018-07-17T06:56:03.815Z,21.67
2018-07-17T06:57:03.730Z,21.67
2018-07-17T06:58:03.800Z,21.67
2018-07-17T06:59:04.097Z,21.67
2018-07-17T07:00:03.774Z,21.67
2018-07-17T07:01:03.777Z,21.67
2018-07-17T07:02:03.568Z,21.67
2018-07-17T07:03:03.695Z,21.67
2018-07-17T07:04:03.647Z,21.67
2018-07-17T07:05:03.656Z,21.67
2018-07-17T07:06:04.007Z,21.68
2018-07-17T07:07:03.676Z,21.68
2018-07-17T07:08:03.756Z,21.67
2018-07-17T07:09:03.722Z,21.68
2018-07-17T07:10:03.709Z,21.68
2018-07-17T07:11:03.653Z,21.68
2018-07-17T07:12:03.873Z,21.68
2018-07-17T07:13:03.629Z,21.68
2018-07-17T07:14:03.660Z,21.68
2018-07-17T07:15:03.767Z,21.68
2018-07-17T07:16:03.875Z,21.68
2018-07-17T07:17:03.602Z,21.68
2018-07-17T07:18:03.924Z,21.68
2018-07-17T07:19:03.623Z,21.68
2018-07-17T07:20:03.572Z,21.68
2018-07-17T07:21:03.842Z,21.68
2018-07-17T07:22:03.626Z,21.68
2018-07-17T07:23:03.701Z,21.68
2018-07-17T07:24:03.721Z,21.68
2018-07-17T07:25:03.679Z,21.68
2018-07-17T07:26:03.954Z,21.68
2018-07-17T07:27:03.818Z,21.68
2018-07-17T07:28:03.882Z,21.68
2018-07-17T07:29:03.752Z,21.68
2018-07-17T07:30:03.833Z,21.68
2018-07-17T07:31:04.616Z,21.68
2018-07-17T07:32:03.876Z,21.68
2018-07-17T07:33:03.843Z,21.68
2018-07-17T07:34:03.798Z,21.68
2018-07-17T07:35:03.754Z,21.68
2018-07-17T07:36:03.677Z,21.69
2018-07-17T07:37:03.738Z,21.68
2018-07-17T07:38:03.633Z,21.69
2018-07-17T07:39:03.753Z,21.68
2018-07-17T07:40:03.849Z,21.69
2018-07-17T07:41:03.796Z,21.69
2018-07-17T07:42:03.712Z,21.68
2018-07-17T07:43:03.876Z,21.69
2018-07-17T07:44:03.961Z,21.69
2018-07-17T07:45:03.700Z,21.69
2018-07-17T07:46:03.772Z,21.69
2018-07-17T07:47:03.593Z,21.69
2018-07-17T07:48:04.076Z,21.69
2018-07-17T07:49:03.824Z,21.68
2018-07-17T07:50:03.812Z,21.69
2018-07-17T07:51:03.572Z,21.69
2018-07-17T07:52:03.699Z,21.69
2018-07-17T07:53:03.746Z,21.69
2018-07-17T07:54:03.807Z,21.7
2018-07-17T07:55:03.796Z,21.69
2018-07-17T07:56:03.996Z,21.69
2018-07-17T07:57:03.967Z,21.69
2018-07-17T07:58:03.645Z,21.69
2018-07-17T07:59:03.791Z,21.69
2018-07-17T08:00:03.976Z,21.69
2018-07-17T08:01:03.921Z,21.69
2018-07-17T08:02:03.780Z,21.69
2018-07-17T08:03:03.940Z,21.7
2018-07-17T08:04:04.825Z,21.7
2018-07-17T08:05:03.777Z,21.69
2018-07-17T08:06:03.651Z,21.7
2018-07-17T08:07:03.749Z,21.7
2018-07-17T08:08:03.760Z,21.7
2018-07-17T08:09:03.704Z,21.7
2018-07-17T08:10:03.730Z,21.7
2018-07-17T08:11:03.744Z,21.7
2018-07-17T08:12:04.387Z,21.7
2018-07-17T08:13:03.826Z,21.7
2018-07-17T08:14:03.852Z,21.7
2018-07-17T08:15:03.866Z,21.7
2018-07-17T08:16:03.626Z,21.7
2018-07-17T08:17:03.683Z,21.7
2018-07-17T08:18:04.214Z,21.7
2018-07-17T08:19:03.709Z,21.7
2018-07-17T08:20:03.900Z,21.7
2018-07-17T08:21:03.719Z,21.7
2018-07-17T08:22:03.816Z,21.7
2018-07-17T08:23:03.546Z,21.7
2018-07-17T08:24:03.706Z,21.7
2018-07-17T08:25:03.663Z,21.7
2018-07-17T08:26:03.830Z,21.7
2018-07-17T08:27:03.553Z,21.71
2018-07-17T08:28:03.699Z,21.7
2018-07-17T08:29:03.794Z,21.71
2018-07-17T08:30:03.757Z,21.71
2018-07-17T08:31:03.775Z,21.71
2018-07-17T08:32:03.833Z,21.71
2018-07-17T08:33:03.678Z,21.71
2018-07-17T08:34:03.743Z,21.71
2018-07-17T08:35:03.810Z,21.71
2018-07-17T08:36:03.750Z,21.7
2018-07-17T08:37:03.822Z,21.71
2018-07-17T08:38:03.745Z,21.71
2018-07-17T08:39:03.659Z,21.71
2018-07-17T08:40:03.789Z,21.71
2018-07-17T08:41:03.656Z,21.71
2018-07-17T08:42:03.799Z,21.71
2018-07-17T08:43:03.549Z,21.71
2018-07-17T08:44:03.666Z,21.71
2018-07-17T08:45:03.807Z,21.71
2018-07-17T08:46:03.748Z,21.71
2018-07-17T08:47:03.722Z,21.71
2018-07-17T08:48:03.693Z,21.71
2018-07-17T08:49:04.285Z,21.71
2018-07-17T08:50:03.701Z,21.71
2018-07-17T08:51:03.800Z,21.71
2018-07-17T08:52:03.861Z,21.71
2018-07-17T08:53:03.682Z,21.71
2018-07-17T08:54:04.058Z,21.71
2018-07-17T08:55:03.722Z,21.71
2018-07-17T08:56:03.915Z,21.71
2018-07-17T08:57:03.857Z,21.71
2018-07-17T08:58:03.678Z,21.71
2018-07-17T08:59:03.791Z,21.71
2018-07-17T09:00:03.749Z,21.71
2018-07-17T09:01:03.645Z,21.71
2018-07-17T09:02:03.884Z,21.71
2018-07-17T09:03:03.710Z,21.71
2018-07-17T09:04:03.758Z,21.71
2018-07-17T09:05:03.751Z,21.71
2018-07-17T09:06:03.725Z,21.71
2018-07-17T09:07:03.665Z,21.71
2018-07-17T09:08:03.727Z,21.71
2018-07-17T09:09:03.711Z,21.71
2018-07-17T09:10:03.698Z,21.71
2018-07-17T09:11:03.698Z,21.71
2018-07-17T09:12:03.800Z,21.71
2018-07-17T09:13:04.184Z,21.71
2018-07-17T09:14:03.762Z,21.71
2018-07-17T09:15:03.734Z,21.71
2018-07-17T09:16:03.729Z,21.71
2018-07-17T09:17:03.927Z,21.71
2018-07-17T09:18:03.729Z,21.71
2018-07-17T09:19:03.662Z,21.71
2018-07-17T09:20:03.745Z,21.71
2018-07-17T09:21:03.678Z,21.71
2018-07-17T09:22:03.945Z,21.71
2018-07-17T09:23:03.743Z,21.71
2018-07-17T09:24:03.658Z,21.71
2018-07-17T09:25:03.778Z,21.71
2018-07-17T09:26:03.637Z,21.71
2018-07-17T09:27:03.767Z,21.71
2018-07-17T09:28:03.801Z,21.71
2018-07-17T09:29:03.737Z,21.71
2018-07-17T09:30:03.728Z,21.71
2018-07-17T09:31:03.737Z,21.71
2018-07-17T09:32:03.589Z,21.71
2018-07-17T09:33:03.699Z,21.71
2018-07-17T09:34:03.755Z,21.71
2018-07-17T09:35:03.911Z,21.71
2018-07-17T09:36:03.802Z,21.71
2018-07-17T09:37:03.720Z,21.71
2018-07-17T09:38:03.848Z,21.71
2018-07-17T09:39:04.181Z,21.71
2018-07-17T09:40:03.689Z,21.71
2018-07-17T09:41:03.810Z,21.71
2018-07-17T09:42:03.846Z,21.71
2018-07-17T09:43:03.710Z,21.71
2018-07-17T09:44:03.744Z,21.71
2018-07-17T09:45:03.756Z,21.71
2018-07-17T09:46:03.684Z,21.71
2018-07-17T09:47:03.623Z,21.71
2018-07-17T09:48:03.706Z,21.72
2018-07-17T09:49:03.664Z,21.72
2018-07-17T09:50:03.799Z,21.71
2018-07-17T09:51:03.701Z,21.72
2018-07-17T09:52:03.773Z,21.71
2018-07-17T09:53:03.708Z,21.72
2018-07-17T09:54:03.827Z,21.72
2018-07-17T09:55:03.668Z,21.72
2018-07-17T09:56:03.630Z,21.71
2018-07-17T09:57:03.725Z,21.71
2018-07-17T09:58:03.773Z,21.72
2018-07-17T09:59:03.754Z,21.72
2018-07-17T10:00:03.836Z,21.72
2018-07-17T10:01:03.691Z,21.72
2018-07-17T10:02:03.699Z,21.71
2018-07-17T10:03:03.774Z,21.72
2018-07-17T10:04:03.853Z,21.72
2018-07-17T10:05:03.672Z,21.72
2018-07-17T10:06:03.583Z,21.72
2018-07-17T10:07:03.786Z,21.72
2018-07-17T10:08:03.796Z,21.72
2018-07-17T10:09:03.830Z,21.72
2018-07-17T10:10:03.556Z,21.72
2018-07-17T10:11:03.673Z,21.72
2018-07-17T10:12:03.592Z,21.72
2018-07-17T10:13:04.033Z,21.72
2018-07-17T10:14:03.780Z,21.72
2018-07-17T10:15:03.581Z,21.72
2018-07-17T10:16:03.814Z,21.72
2018-07-17T10:17:03.877Z,21.72
2018-07-17T10:18:03.735Z,21.72
2018-07-17T10:19:03.758Z,21.72
2018-07-17T10:20:04.376Z,21.72
2018-07-17T10:21:03.673Z,21.72
2018-07-17T10:22:03.785Z,21.72
2018-07-17T10:23:04.001Z,21.72
2018-07-17T10:24:03.544Z,21.72
2018-07-17T10:25:03.714Z,21.72
2018-07-17T10:26:03.722Z,21.72
2018-07-17T10:27:03.662Z,21.72
2018-07-17T10:28:03.870Z,21.72
2018-07-17T10:29:03.672Z,21.72
2018-07-17T10:30:03.763Z,21.72
2018-07-17T10:31:03.699Z,21.72
2018-07-17T10:32:04.065Z,21.72
2018-07-17T10:33:03.551Z,21.72
2018-07-17T10:34:03.776Z,21.72
2018-07-17T10:35:03.700Z,21.72
2018-07-17T10:36:03.653Z,21.72
2018-07-17T10:37:03.726Z,21.72
2018-07-17T10:38:03.772Z,21.72
2018-07-17T10:39:03.755Z,21.72
2018-07-17T10:40:03.842Z,21.72
2018-07-17T10:41:03.712Z,21.72
2018-07-17T10:42:03.605Z,21.72
2018-07-17T10:43:03.791Z,21.72
2018-07-17T10:44:03.695Z,21.72
2018-07-17T10:45:03.833Z,21.72
2018-07-17T10:46:03.748Z,21.72
2018-07-17T10:47:03.718Z,21.72
2018-07-17T10:48:03.754Z,21.72
2018-07-17T10:49:03.806Z,21.72
2018-07-17T10:50:03.928Z,21.72
2018-07-17T10:51:03.788Z,21.72
2018-07-17T10:52:03.599Z,21.72
2018-07-17T10:53:03.856Z,21.72
2018-07-17T10:54:03.813Z,21.72
2018-07-17T10:55:03.616Z,21.72
2018-07-17T10:56:03.871Z,21.72
2018-07-17T10:57:03.739Z,21.73
2018-07-17T10:58:03.790Z,21.73
2018-07-17T10:59:03.612Z,21.72
2018-07-17T11:00:04.067Z,21.72
2018-07-17T11:01:04.165Z,21.72
2018-07-17T11:02:03.689Z,21.72
2018-07-17T11:03:03.831Z,21.72
2018-07-17T11:04:03.978Z,21.72
2018-07-17T11:05:03.738Z,21.72
2018-07-17T11:06:03.586Z,21.73
2018-07-17T11:07:03.593Z,21.72
2018-07-17T11:08:03.733Z,21.73
2018-07-17T11:09:03.566Z,21.72
2018-07-17T11:10:03.671Z,21.72
2018-07-17T11:11:03.881Z,21.71
2018-07-17T11:12:03.745Z,21.72
2018-07-17T11:13:03.695Z,21.75
2018-07-17T11:14:03.848Z,21.76
2018-07-17T11:15:03.746Z,21.77
2018-07-17T11:16:03.705Z,21.77
2018-07-17T11:17:03.736Z,21.78
2018-07-17T11:18:03.775Z,21.79
2018-07-17T11:19:03.737Z,21.8
2018-07-17T11:20:03.709Z,21.8
2018-07-17T11:21:03.672Z,21.8
2018-07-17T11:22:03.754Z,21.81
2018-07-17T11:23:03.899Z,21.82
2018-07-17T11:24:03.829Z,21.83
2018-07-17T11:25:03.736Z,21.8
2018-07-17T11:26:03.758Z,21.79
2018-07-17T11:27:03.508Z,21.8
2018-07-17T11:28:03.713Z,21.78
2018-07-17T11:29:03.621Z,21.8
2018-07-17T11:30:03.639Z,21.81
2018-07-17T11:31:03.845Z,21.82
2018-07-17T11:32:04.423Z,21.83
2018-07-17T11:33:03.732Z,21.83
2018-07-17T11:34:03.805Z,21.84
2018-07-17T11:35:03.806Z,21.85
2018-07-17T11:36:13.780Z,21.87
2018-07-17T11:37:03.907Z,21.87
2018-07-17T11:38:03.887Z,21.86
2018-07-17T11:39:03.947Z,21.86
2018-07-17T11:40:03.672Z,21.86
2018-07-17T11:41:03.634Z,21.86
2018-07-17T11:42:03.650Z,21.87
2018-07-17T11:43:03.904Z,21.86
2018-07-17T11:44:03.844Z,21.86
2018-07-17T11:45:03.684Z,21.86
2018-07-17T11:46:03.622Z,21.85
2018-07-17T11:47:03.802Z,21.85
2018-07-17T11:48:03.936Z,21.84
2018-07-17T11:49:03.638Z,21.84
2018-07-17T11:50:03.639Z,21.84
2018-07-17T11:51:03.761Z,21.84
2018-07-17T11:52:03.714Z,21.84
2018-07-17T11:53:03.764Z,21.83
2018-07-17T11:54:03.861Z,21.83
2018-07-17T11:55:03.924Z,21.83
2018-07-17T11:56:03.816Z,21.83
2018-07-17T11:57:03.822Z,21.83
2018-07-17T11:58:03.736Z,21.83
2018-07-17T11:59:04.564Z,21.83
2018-07-17T12:00:03.807Z,21.83
2018-07-17T12:01:03.773Z,21.83
2018-07-17T12:02:03.714Z,21.82
2018-07-17T12:03:03.636Z,21.82
2018-07-17T12:04:03.806Z,21.82
2018-07-17T12:05:03.684Z,21.82
2018-07-17T12:06:03.711Z,21.82
2018-07-17T12:07:03.647Z,21.83
2018-07-17T12:08:03.755Z,21.83
2018-07-17T12:09:03.650Z,21.82
2018-07-17T12:10:03.848Z,21.83
2018-07-17T12:11:03.582Z,21.82
2018-07-17T12:12:03.569Z,21.82
2018-07-17T12:13:04.189Z,21.82
2018-07-17T12:14:03.789Z,21.82
2018-07-17T12:15:03.796Z,21.82
2018-07-17T12:16:03.828Z,21.82
2018-07-17T12:17:03.709Z,21.82
2018-07-17T12:18:03.709Z,21.82
2018-07-17T12:19:03.797Z,21.81
2018-07-17T12:20:05.271Z,21.81
2018-07-17T12:21:03.531Z,21.81
2018-07-17T12:22:03.613Z,21.81
2018-07-17T12:23:03.778Z,21.81
2018-07-17T12:24:03.635Z,21.82
2018-07-17T12:25:03.639Z,21.81
2018-07-17T12:26:03.647Z,21.81
2018-07-17T12:27:03.858Z,21.81
2018-07-17T12:28:04.246Z,21.81
2018-07-17T12:29:03.657Z,21.81
2018-07-17T12:30:03.568Z,21.81
2018-07-17T12:31:03.901Z,21.81
2018-07-17T12:32:03.854Z,21.81
2018-07-17T12:33:03.788Z,21.81
2018-07-17T12:34:03.749Z,21.8
2018-07-17T12:35:04.268Z,21.81
2018-07-17T12:36:03.672Z,21.81
2018-07-17T12:37:03.899Z,21.81
2018-07-17T12:38:03.691Z,21.81
2018-07-17T12:39:03.540Z,21.8
2018-07-17T12:40:03.736Z,21.8
2018-07-17T12:41:03.777Z,21.8
2018-07-17T12:42:03.657Z,21.81
2018-07-17T12:43:03.675Z,21.81
2018-07-17T12:44:03.646Z,21.81
2018-07-17T12:45:03.667Z,21.81
2018-07-17T12:46:03.799Z,21.81
2018-07-17T12:47:03.641Z,21.81
2018-07-17T12:48:03.511Z,21.81
2018-07-17T12:49:04.037Z,21.81
2018-07-17T12:50:04.772Z,21.81
2018-07-17T12:51:03.683Z,21.81
2018-07-17T12:52:03.703Z,21.81
2018-07-17T12:53:03.756Z,21.8
2018-07-17T12:54:03.677Z,21.81
2018-07-17T12:55:03.676Z,21.81